Aeroporto :
LOGIN :

Iscrizione | Disclaimer

   EN    FR    IT 

 










Sommario :    VFR   VFR Marginale   IFR   IFR Intensivo   IFR Molto Intensivo
Visibilità : 
Base nubi : 
>= 8 km
>= 3000ft
5 / 8 km
1000 / 3000 ft
1500m / 5 km
500 / 1000 ft
800 / 1500m
200 / 500 ft
< 800m
< 200 ft
Simboli :   Temporali  Nebbia  Neve Forte  Precipitazioni Forti  Vento > 20 kt
SIGMETs :   Varie  Temporali  Ghiacco  Turbolenza  Onda orograficha  Ceneri Vulcaniche






- Altitudine del aeroporto : 464 ft
- Codice IATA : EVX


LFOE - Evreux

ULTIMO METAR :
  • 121900Z AUTO 22010KT CAVOK 04/02 Q1002 TEMPO 4000 -RA

METARs OBSOLETI :
  • 121830Z AUTO 22010KT CAVOK 04/02 Q1003 TEMPO 4000 -RA
  • 121800Z AUTO 22011KT CAVOK 04/02 Q1003 TEMPO 4000 -RA
  • 121730Z AUTO 21010KT CAVOK 05/03 Q1003 TEMPO 4000 -RA
  • 121700Z AUTO 22010KT CAVOK 05/02 Q1003 NOSIG
  • 121630Z AUTO /////KT CAVOK 05/02 Q1003

TAF TAF LFOE
Valido dal 12 a 15 ore il 13 a 15 ore UTC


121400Z 1215/1315 25010G20KT 9999 SCT025 SCT040
TEMPO 1215/1216 VRB15G30KT 1500 SHRAGS BKN012 BKN025CB
PROB30
TEMPO 1215/1216 TSRA
TEMPO 1219/1224 4000 -RA BKN020
BECMG 1300/1303 24008KT 4000 BR BKN004
PROB30
TEMPO 1304/1307 0800 BCFG
BECMG 1307/1309 9999 NSW
BECMG 1309/1311 BKN010
TEMPO 1309/1315 29015G25KT 4000 -SHRA BKN006 BKN025TCU



MetMap, La meteo Aeronautica in un colpo d'occhio ! - Copyright ORBIFLY Dicembre 2007 - Disclaimer

ORBIFLY MET'MAP TEAM :

Programmazione e sviluppo : Alexandra Zaïnal
Concezione e sviluppo : Baudouin d'Aumeries
Co-Programmazione e sviluppo : Marc-Olivier Méhu
Supporto tecnico e logistico : Manuel Goepfert
Aiuto per la traduzione : Arnaldo La Scala

Contatto : metmap@orbifly.com




FONTI E CREDITI :

   NOAA